Terminal Aerodrome Forecast
Issued by NWS

Home | Current Version | Previous Version | Text Only | Print | Product List | Glossary Off
Versions: 1 2 3 4 5 6 7 8 9 10 11 12 13 14 15 16 17 18 19 20

141
FTUS43 KICT 180759 AAA
TAFRSL
TAF AMD
KRSL 180759Z 1808/1906 11004KT 1 1/2SM BR VCSH BKN003 OVC080
      TEMPO 1808/1810 1/4SM FG VV002
     FM181000 12003KT 2SM BR VCSH OVC004
      TEMPO 1810/1812 4SM -RA BR SCT005 OVC015
     FM181200 16005KT 3SM -RA BR OVC005
      TEMPO 1812/1816 P6SM NSW OVC008
     FM181600 19013KT P6SM OVC015
     FM181800 20013KT P6SM OVC025
     FM182000 20013KT P6SM OVC035=

USA.gov is the U.S. government's official web portal to all federal, state and local government web resources and services.